Terminal Aerodrome Forecast
Issued by NWS

Current Version | Previous Version | Graphics & Text | Print | Product List | Glossary On
Versions: 1 2 3 4 5 6 7 8 9 10 11 12 13 14 15 16 17 18 19 20 21 22 23 24 25 26 27 28
000
FTUS41 KILN 171700
TAFLUK
TAF
KLUK 171723Z 1718/1818 VRB03KT P6SM BKN040
     FM180000 00000KT P6SM BKN100
     FM180600 00000KT 4SM BR SCT100
     FM180800 00000KT 1/2SM FG VV001
     FM181200 00000KT 4SM BR SCT015
     FM181400 04005KT P6SM SCT040=

USA.gov is the U.S. government's official web portal to all federal, state and local government web resources and services.